createdAt,value
2019-05-26T00:00:12.607Z,99.90
2019-05-26T00:02:41.909Z,99.90
2019-05-26T00:05:11.672Z,99.90
2019-05-26T00:07:41.002Z,99.90
2019-05-26T00:10:10.712Z,99.90
2019-05-26T00:12:40.114Z,99.90
2019-05-26T00:15:10.667Z,99.90
2019-05-26T00:17:40.009Z,99.90
2019-05-26T00:20:09.858Z,99.90
2019-05-26T00:22:39.176Z,99.90
2019-05-26T00:25:09.299Z,99.90
2019-05-26T00:27:38.972Z,99.90
2019-05-26T00:30:10.081Z,99.90
2019-05-26T00:32:39.409Z,99.90
2019-05-26T00:35:09.957Z,99.90
2019-05-26T00:37:49.018Z,99.90
2019-05-26T00:40:11.509Z,99.90
2019-05-26T00:42:41.117Z,99.90
2019-05-26T00:45:12.234Z,99.90
2019-05-26T00:47:41.958Z,99.90
2019-05-26T00:50:12.901Z,99.90
2019-05-26T00:52:42.602Z,99.90
2019-05-26T00:55:12.076Z,99.90
2019-05-26T00:57:41.451Z,99.90
2019-05-26T01:00:12.375Z,99.90
2019-05-26T01:02:42.277Z,99.90
2019-05-26T01:05:13.720Z,99.90
2019-05-26T01:07:43.057Z,99.90
2019-05-26T01:10:15.752Z,99.90
2019-05-26T01:12:45.408Z,99.90
2019-05-26T01:15:15.321Z,99.90
2019-05-26T01:17:44.636Z,99.90
2019-05-26T01:20:14.019Z,99.90
2019-05-26T01:22:43.641Z,99.90
2019-05-26T01:25:13.178Z,99.90
2019-05-26T01:27:42.481Z,99.90
2019-05-26T01:30:12.036Z,99.90
2019-05-26T01:32:41.750Z,99.90
2019-05-26T01:35:11.669Z,99.90
2019-05-26T01:37:42.681Z,99.90
2019-05-26T01:40:12.759Z,99.90
2019-05-26T01:42:42.065Z,99.90
2019-05-26T01:45:11.517Z,99.90
2019-05-26T01:47:40.821Z,99.90
2019-05-26T01:50:10.549Z,99.90
2019-05-26T01:52:39.848Z,99.90
2019-05-26T01:55:09.669Z,99.90
2019-05-26T01:57:39.044Z,99.90
2019-05-26T02:00:10.906Z,99.90
2019-05-26T02:02:40.460Z,99.90
2019-05-26T02:05:09.977Z,99.90
2019-05-26T02:07:39.239Z,99.90
2019-05-26T02:10:09.252Z,99.90
2019-05-26T02:12:38.556Z,99.90
2019-05-26T02:15:09.376Z,99.90
2019-05-26T02:17:38.981Z,99.90
2019-05-26T02:20:10.526Z,99.90
2019-05-26T02:22:39.837Z,99.90
2019-05-26T02:25:10.275Z,99.90
2019-05-26T02:27:39.589Z,99.90
2019-05-26T02:30:11.387Z,99.90
2019-05-26T02:32:40.718Z,99.90
2019-05-26T02:35:11.313Z,99.90
2019-05-26T02:37:40.954Z,99.90
2019-05-26T02:40:11.491Z,99.90
2019-05-26T02:42:40.800Z,99.90
2019-05-26T02:45:14.901Z,99.90
2019-05-26T02:47:46.615Z,99.90
2019-05-26T02:50:17.561Z,99.90
2019-05-26T02:52:49.537Z,99.90
2019-05-26T02:55:19.463Z,99.90
2019-05-26T02:57:48.762Z,99.90
2019-05-26T03:00:25.518Z,99.90
2019-05-26T03:02:55.268Z,99.90
2019-05-26T03:05:24.946Z,99.90
2019-05-26T03:07:56.077Z,99.90
2019-05-26T03:10:25.370Z,99.90
2019-05-26T03:12:56.490Z,99.90
2019-05-26T03:15:25.810Z,99.90
2019-05-26T03:17:57.229Z,99.90
2019-05-26T03:20:26.574Z,99.90
2019-05-26T03:22:58.377Z,99.90
2019-05-26T03:25:29.523Z,99.90
2019-05-26T03:27:59.128Z,99.90
2019-05-26T03:30:28.439Z,99.90
2019-05-26T03:32:57.744Z,99.90
2019-05-26T03:35:27.327Z,99.90
2019-05-26T03:37:56.657Z,99.90
2019-05-26T03:40:25.977Z,99.90
2019-05-26T03:42:55.350Z,99.90
2019-05-26T03:45:44.290Z,99.90
2019-05-26T03:48:13.593Z,99.90
2019-05-26T03:50:42.914Z,99.90
2019-05-26T03:53:12.227Z,99.90
2019-05-26T03:55:41.615Z,99.90
2019-05-26T03:58:11.206Z,99.90
2019-05-26T04:00:40.795Z,99.90
2019-05-26T04:03:10.112Z,99.90
2019-05-26T04:05:39.414Z,99.90
2019-05-26T04:08:09.031Z,99.90
2019-05-26T04:10:38.348Z,99.90
2019-05-26T04:13:07.707Z,99.90
2019-05-26T04:15:37.029Z,99.90
2019-05-26T04:18:23.440Z,99.90
2019-05-26T04:20:53.025Z,99.90
2019-05-26T04:23:27.643Z,99.90
2019-05-26T04:25:57.019Z,99.90
2019-05-26T04:28:26.665Z,99.90
2019-05-26T04:30:55.975Z,99.90
2019-05-26T04:33:25.558Z,99.90
2019-05-26T04:35:54.878Z,99.90
2019-05-26T04:38:24.213Z,99.90
2019-05-26T04:40:53.770Z,99.90
2019-05-26T04:43:23.319Z,99.90
2019-05-26T04:45:52.715Z,99.90
2019-05-26T04:48:22.052Z,99.90
2019-05-26T04:50:51.685Z,99.90
2019-05-26T04:53:24.555Z,99.90
2019-05-26T04:55:53.990Z,99.90
2019-05-26T04:58:23.428Z,99.90
2019-05-26T05:00:53.161Z,99.90
2019-05-26T05:03:22.480Z,99.90
2019-05-26T05:05:55.490Z,99.90
2019-05-26T05:08:25.075Z,99.90
2019-05-26T05:10:54.695Z,99.90
2019-05-26T05:13:25.035Z,99.90
2019-05-26T05:15:54.414Z,99.90
2019-05-26T05:18:23.727Z,99.90
2019-05-26T05:20:53.062Z,99.90
2019-05-26T05:23:22.363Z,99.90
2019-05-26T05:25:51.676Z,99.90
2019-05-26T05:28:21.318Z,99.90
2019-05-26T05:30:50.632Z,99.90
2019-05-26T05:33:20.232Z,99.90
2019-05-26T05:35:49.837Z,99.90
2019-05-26T05:38:19.157Z,99.90
2019-05-26T05:40:58.830Z,99.90
2019-05-26T05:43:19.518Z,99.90
2019-05-26T05:45:48.891Z,99.90
2019-05-26T05:48:18.518Z,99.90
2019-05-26T05:50:47.799Z,99.90
2019-05-26T05:53:17.125Z,99.90
2019-05-26T05:55:49.406Z,99.90
2019-05-26T05:58:18.696Z,99.90
2019-05-26T06:00:48.464Z,99.90
2019-05-26T06:03:18.886Z,99.90
2019-05-26T06:05:48.467Z,99.90
2019-05-26T06:08:18.305Z,99.90
2019-05-26T06:10:47.649Z,99.90
2019-05-26T06:13:16.999Z,99.90
2019-05-26T06:15:46.312Z,99.90
2019-05-26T06:18:15.630Z,99.90
2019-05-26T06:20:44.966Z,99.90
2019-05-26T06:23:14.284Z,99.90
2019-05-26T06:25:43.936Z,99.90
2019-05-26T06:28:13.258Z,99.90
2019-05-26T06:30:42.566Z,99.90
2019-05-26T06:33:11.883Z,99.90
2019-05-26T06:35:41.191Z,99.90
2019-05-26T06:38:10.826Z,99.90
2019-05-26T06:40:40.136Z,99.90
2019-05-26T06:43:09.477Z,99.90
2019-05-26T06:45:38.789Z,99.90
2019-05-26T06:48:08.613Z,99.90
2019-05-26T06:50:37.931Z,99.90
2019-05-26T06:53:07.247Z,99.90
2019-05-26T06:55:39.230Z,99.90
2019-05-26T06:58:08.579Z,99.90
2019-05-26T07:00:37.879Z,99.90
2019-05-26T07:03:07.243Z,99.90
2019-05-26T07:05:36.551Z,99.90
2019-05-26T07:08:05.871Z,99.90
2019-05-26T07:10:35.515Z,99.90
2019-05-26T07:13:04.898Z,99.90
2019-05-26T07:15:34.443Z,99.90
2019-05-26T07:18:03.829Z,99.90
2019-05-26T07:20:33.299Z,99.90
2019-05-26T07:23:02.802Z,99.90
2019-05-26T07:25:32.233Z,99.90
2019-05-26T07:28:01.564Z,99.90
2019-05-26T07:30:31.264Z,99.90
2019-05-26T07:33:00.573Z,99.90
2019-05-26T07:35:32.911Z,99.90
2019-05-26T07:38:00.923Z,99.90
2019-05-26T07:40:30.235Z,99.90
2019-05-26T07:42:59.791Z,99.90
2019-05-26T07:45:29.189Z,99.90
2019-05-26T07:47:58.487Z,99.90
2019-05-26T07:50:28.139Z,99.90
2019-05-26T07:52:57.447Z,99.90
2019-05-26T07:55:26.798Z,99.90
2019-05-26T07:57:56.129Z,99.90
2019-05-26T08:00:25.866Z,99.90
2019-05-26T08:02:55.427Z,99.90
2019-05-26T08:05:24.734Z,99.90
2019-05-26T08:08:09.558Z,99.90
2019-05-26T08:10:25.108Z,99.90
2019-05-26T08:12:54.454Z,99.90
2019-05-26T08:15:24.072Z,99.90
2019-05-26T08:17:53.422Z,99.90
2019-05-26T08:20:23.161Z,99.90
2019-05-26T08:22:52.463Z,99.90
2019-05-26T08:25:21.772Z,99.90
2019-05-26T08:27:51.079Z,99.90
2019-05-26T08:30:20.859Z,99.90
2019-05-26T08:32:50.214Z,99.90
2019-05-26T08:35:19.521Z,99.90
2019-05-26T08:37:49.203Z,99.90
2019-05-26T08:40:19.179Z,99.90
2019-05-26T08:42:51.010Z,99.90
2019-05-26T08:45:23.025Z,99.90
2019-05-26T08:47:53.115Z,99.90
2019-05-26T08:50:23.194Z,99.90
2019-05-26T08:52:52.479Z,99.90
2019-05-26T08:55:22.802Z,99.90
2019-05-26T08:57:52.101Z,99.90
2019-05-26T09:00:24.135Z,99.90
2019-05-26T09:02:53.442Z,99.90
2019-05-26T09:05:23.405Z,99.90
2019-05-26T09:07:52.697Z,99.90
2019-05-26T09:10:22.394Z,99.90
2019-05-26T09:13:00.954Z,99.90
2019-05-26T09:15:22.723Z,99.90
2019-05-26T09:17:52.338Z,99.90
2019-05-26T09:20:24.090Z,99.90
2019-05-26T09:22:53.408Z,99.90
2019-05-26T09:25:22.732Z,99.90
2019-05-26T09:27:52.045Z,99.90
2019-05-26T09:30:21.557Z,99.90
2019-05-26T09:32:50.861Z,99.90
2019-05-26T09:35:20.232Z,99.90
2019-05-26T09:37:49.533Z,99.90
2019-05-26T09:40:19.633Z,99.90
2019-05-26T09:42:49.237Z,99.90
2019-05-26T09:45:18.889Z,99.90
2019-05-26T09:47:48.194Z,99.90
2019-05-26T09:50:18.431Z,99.90
2019-05-26T09:52:48.114Z,99.90
2019-05-26T09:55:18.812Z,99.90
2019-05-26T09:57:48.102Z,99.90
2019-05-26T10:00:18.759Z,99.90
2019-05-26T10:02:48.064Z,99.90
2019-05-26T10:05:17.591Z,99.90
2019-05-26T10:07:46.899Z,99.90
2019-05-26T10:10:17.439Z,99.90
2019-05-26T10:12:46.751Z,99.90
2019-05-26T10:15:19.785Z,99.90
2019-05-26T10:17:49.128Z,99.90
2019-05-26T10:20:19.497Z,99.90
2019-05-26T10:22:48.800Z,99.90
2019-05-26T10:25:18.129Z,99.90
2019-05-26T10:27:47.467Z,99.90
2019-05-26T10:30:17.705Z,99.90
2019-05-26T10:32:47.043Z,99.90
2019-05-26T10:35:16.923Z,99.90
2019-05-26T10:37:46.222Z,99.90
2019-05-26T10:40:20.608Z,99.90
2019-05-26T10:42:49.927Z,99.90
2019-05-26T10:45:20.337Z,99.90
2019-05-26T10:47:49.735Z,99.90
2019-05-26T10:50:19.271Z,99.90
2019-05-26T10:52:48.882Z,99.90
2019-05-26T10:55:18.595Z,99.90
2019-05-26T10:57:47.937Z,99.90
2019-05-26T11:00:18.441Z,99.90
2019-05-26T11:02:47.753Z,99.90
2019-05-26T11:05:17.993Z,99.90
2019-05-26T11:07:47.305Z,99.90
2019-05-26T11:10:17.413Z,99.90
2019-05-26T11:12:47.087Z,99.90
2019-05-26T11:15:16.806Z,99.90
2019-05-26T11:17:46.387Z,99.90
2019-05-26T11:20:17.005Z,99.90
2019-05-26T11:22:46.342Z,99.90
2019-05-26T11:25:16.837Z,99.90
2019-05-26T11:27:46.205Z,99.90
2019-05-26T11:30:17.504Z,99.90
2019-05-26T11:32:46.844Z,99.90
2019-05-26T11:35:16.822Z,99.90
2019-05-26T11:37:46.433Z,99.90
2019-05-26T11:40:17.548Z,99.90
2019-05-26T11:42:46.890Z,99.90
2019-05-26T11:45:17.902Z,99.90
2019-05-26T11:47:47.520Z,99.90
2019-05-26T11:50:17.674Z,99.90
2019-05-26T11:52:47.349Z,99.90
2019-05-26T11:55:17.212Z,99.90
2019-05-26T11:57:46.545Z,99.90
2019-05-26T12:00:17.734Z,99.90
2019-05-26T12:02:47.500Z,99.90
2019-05-26T12:05:18.113Z,99.90
2019-05-26T12:07:47.599Z,99.90
2019-05-26T12:10:17.262Z,99.90
2019-05-26T12:12:46.582Z,99.90
2019-05-26T12:15:17.699Z,99.90
2019-05-26T12:17:47.050Z,99.90
2019-05-26T12:20:16.871Z,99.90
2019-05-26T12:22:46.184Z,99.90
2019-05-26T12:25:16.573Z,99.90
2019-05-26T12:27:46.152Z,99.90
2019-05-26T12:30:17.031Z,99.90
2019-05-26T12:32:46.352Z,99.90
2019-05-26T12:35:15.759Z,99.90
2019-05-26T12:37:48.251Z,99.90
2019-05-26T12:40:17.198Z,99.90
2019-05-26T12:42:46.897Z,99.90
2019-05-26T12:45:18.206Z,99.90
2019-05-26T12:47:47.496Z,99.90
2019-05-26T12:50:18.548Z,99.90
2019-05-26T12:52:47.870Z,99.90
2019-05-26T12:55:17.365Z,99.90
2019-05-26T12:57:46.675Z,99.90
2019-05-26T13:00:16.549Z,99.90
2019-05-26T13:02:46.284Z,99.90
2019-05-26T13:05:16.719Z,99.90
2019-05-26T13:07:46.033Z,99.90
2019-05-26T13:10:16.424Z,99.90
2019-05-26T13:12:45.800Z,99.90
2019-05-26T13:15:16.323Z,99.90
2019-05-26T13:17:45.964Z,99.90
2019-05-26T13:20:18.300Z,99.90
2019-05-26T13:22:47.605Z,99.90
2019-05-26T13:25:17.959Z,99.90
2019-05-26T13:27:47.254Z,99.90
2019-05-26T13:30:27.104Z,99.90
2019-05-26T13:32:56.717Z,99.90
2019-05-26T13:35:26.096Z,99.90
2019-05-26T13:37:55.389Z,99.90
2019-05-26T13:40:24.735Z,99.90
2019-05-26T13:42:54.053Z,99.90
2019-05-26T13:45:23.711Z,99.90
2019-05-26T13:47:53.437Z,99.90
2019-05-26T13:50:23.062Z,99.90
2019-05-26T13:52:52.412Z,99.90
2019-05-26T13:55:22.465Z,99.90
2019-05-26T13:57:51.799Z,99.90
2019-05-26T14:00:22.755Z,99.90
2019-05-26T14:02:52.056Z,99.90
2019-05-26T14:05:22.099Z,99.90
2019-05-26T14:07:51.509Z,99.90
2019-05-26T14:10:35.989Z,99.90
2019-05-26T14:13:07.092Z,99.90
2019-05-26T14:15:38.447Z,99.90
2019-05-26T14:18:08.084Z,99.90
2019-05-26T14:20:41.518Z,99.90
2019-05-26T14:23:11.676Z,99.90
2019-05-26T14:25:40.977Z,99.90
2019-05-26T14:28:10.299Z,99.90
2019-05-26T14:30:40.051Z,99.90
2019-05-26T14:33:09.472Z,99.90
2019-05-26T14:35:38.782Z,99.90
2019-05-26T14:38:08.093Z,99.90
2019-05-26T14:40:37.414Z,99.90
2019-05-26T14:43:06.768Z,99.90
2019-05-26T14:45:52.035Z,99.90
2019-05-26T14:48:07.758Z,99.90
2019-05-26T14:50:40.421Z,99.90
2019-05-26T14:53:08.118Z,99.90
2019-05-26T14:55:37.414Z,99.90
2019-05-26T14:58:15.844Z,99.90
2019-05-26T15:00:38.050Z,99.90
2019-05-26T15:03:07.413Z,99.90
2019-05-26T15:05:36.758Z,99.90
2019-05-26T15:08:06.078Z,99.90
2019-05-26T15:10:35.706Z,99.90
2019-05-26T15:13:05.078Z,99.90
2019-05-26T15:15:35.190Z,99.90
2019-05-26T15:18:04.982Z,99.90
2019-05-26T15:20:34.412Z,99.90
2019-05-26T15:23:03.723Z,99.90
2019-05-26T15:25:33.020Z,99.90
2019-05-26T15:28:03.992Z,99.90
2019-05-26T15:30:33.666Z,99.90
2019-05-26T15:33:02.967Z,99.90
2019-05-26T15:35:32.268Z,99.90
2019-05-26T15:38:01.609Z,99.90
2019-05-26T15:40:31.209Z,99.90
2019-05-26T15:43:00.509Z,99.90
2019-05-26T15:45:29.808Z,99.90
2019-05-26T15:47:59.109Z,99.90
2019-05-26T15:50:28.479Z,99.90
2019-05-26T15:52:58.079Z,99.90
2019-05-26T15:55:27.450Z,99.90
2019-05-26T15:57:56.704Z,99.90
2019-05-26T16:00:26.126Z,99.90
2019-05-26T16:02:55.778Z,99.90
2019-05-26T16:05:25.109Z,99.90
2019-05-26T16:07:54.690Z,99.90
2019-05-26T16:10:24.002Z,99.90
2019-05-26T16:12:53.333Z,99.90
2019-05-26T16:15:23.017Z,99.90
2019-05-26T16:17:52.351Z,99.90
2019-05-26T16:20:21.810Z,99.90
2019-05-26T16:22:51.407Z,99.90
2019-05-26T16:25:21.070Z,99.90
2019-05-26T16:27:50.381Z,99.90
2019-05-26T16:30:19.868Z,99.90
2019-05-26T16:32:49.590Z,99.90
2019-05-26T16:35:19.272Z,99.90
2019-05-26T16:37:48.858Z,99.90
2019-05-26T16:40:18.205Z,99.90
2019-05-26T16:42:47.759Z,99.90
2019-05-26T16:45:17.383Z,99.90
2019-05-26T16:47:46.986Z,99.90
2019-05-26T16:50:16.356Z,99.90
2019-05-26T16:52:45.981Z,99.90
2019-05-26T16:55:16.154Z,99.90
2019-05-26T16:57:45.433Z,99.90
2019-05-26T17:00:15.946Z,99.90
2019-05-26T17:02:45.552Z,99.90
2019-05-26T17:05:15.625Z,99.90
2019-05-26T17:07:44.953Z,99.90
2019-05-26T17:10:14.697Z,99.90
2019-05-26T17:12:43.990Z,99.90
2019-05-26T17:15:16.142Z,99.90
2019-05-26T17:17:45.427Z,99.90
2019-05-26T17:20:15.631Z,99.90
2019-05-26T17:22:44.972Z,99.90
2019-05-26T17:25:14.943Z,99.90
2019-05-26T17:27:44.246Z,99.90
2019-05-26T17:30:14.631Z,99.90
2019-05-26T17:32:43.973Z,99.90
2019-05-26T17:35:14.439Z,99.90
2019-05-26T17:37:43.774Z,99.90
2019-05-26T17:40:13.616Z,99.90
2019-05-26T17:42:42.910Z,99.90
2019-05-26T17:45:13.158Z,99.90
2019-05-26T17:47:42.866Z,99.90
2019-05-26T17:50:13.214Z,99.90
2019-05-26T17:52:42.547Z,99.90
2019-05-26T17:55:12.312Z,99.90
2019-05-26T17:57:41.618Z,99.90
2019-05-26T18:00:13.938Z,99.90
2019-05-26T18:02:43.241Z,99.90
2019-05-26T18:05:13.710Z,99.90
2019-05-26T18:07:43.031Z,99.90
2019-05-26T18:10:13.816Z,99.90
2019-05-26T18:12:43.461Z,99.90
2019-05-26T18:15:13.254Z,99.90
2019-05-26T18:17:47.278Z,98.70
2019-05-26T18:20:14.549Z,97.80
2019-05-26T18:22:43.899Z,96.00
2019-05-26T18:25:13.735Z,95.50
2019-05-26T18:27:43.050Z,94.50
2019-05-26T18:30:15.060Z,94.30
2019-05-26T18:32:44.732Z,93.90
2019-05-26T18:35:15.358Z,94.20
2019-05-26T18:37:44.636Z,94.50
2019-05-26T18:40:14.715Z,94.70
2019-05-26T18:42:44.030Z,95.40
2019-05-26T18:45:14.046Z,95.50
2019-05-26T18:47:43.348Z,95.90
2019-05-26T18:50:14.074Z,96.70
2019-05-26T18:52:43.374Z,97.10
2019-05-26T18:55:13.073Z,97.50
2019-05-26T18:57:42.373Z,97.70
2019-05-26T19:00:15.576Z,98.10
2019-05-26T19:02:44.923Z,98.70
2019-05-26T19:05:15.425Z,99.00
2019-05-26T19:07:44.758Z,99.30
2019-05-26T19:10:14.876Z,99.50
2019-05-26T19:12:44.176Z,99.50
2019-05-26T19:15:13.771Z,99.90
2019-05-26T19:17:43.106Z,99.90
2019-05-26T19:20:16.779Z,99.90
2019-05-26T19:22:44.492Z,99.90
2019-05-26T19:25:19.949Z,99.90
2019-05-26T19:27:49.298Z,99.90
2019-05-26T19:30:19.017Z,99.90
2019-05-26T19:32:48.388Z,99.90
2019-05-26T19:35:17.678Z,99.90
2019-05-26T19:37:49.641Z,99.90
2019-05-26T19:40:20.509Z,99.90
2019-05-26T19:42:49.843Z,99.90
2019-05-26T19:45:19.211Z,99.90
2019-05-26T19:47:48.815Z,99.90
2019-05-26T19:50:18.531Z,99.90
2019-05-26T19:52:49.900Z,99.90
2019-05-26T19:55:18.853Z,99.90
2019-05-26T19:57:48.601Z,99.90
2019-05-26T20:00:19.043Z,99.90
2019-05-26T20:02:48.391Z,99.90
2019-05-26T20:05:17.844Z,99.90
2019-05-26T20:07:47.157Z,99.90
2019-05-26T20:10:17.516Z,99.90
2019-05-26T20:12:46.832Z,99.90
2019-05-26T20:15:17.047Z,99.90
2019-05-26T20:17:46.644Z,99.90
2019-05-26T20:20:16.461Z,99.90
2019-05-26T20:22:46.083Z,99.90
2019-05-26T20:25:18.858Z,99.90
2019-05-26T20:27:48.458Z,99.90
2019-05-26T20:30:21.162Z,99.90
2019-05-26T20:32:48.982Z,99.90
2019-05-26T20:35:18.816Z,99.90
2019-05-26T20:37:48.126Z,99.90
2019-05-26T20:40:17.959Z,99.90
2019-05-26T20:42:47.522Z,99.90
2019-05-26T20:45:17.864Z,99.90
2019-05-26T20:47:47.209Z,99.90
2019-05-26T20:50:28.577Z,99.90
2019-05-26T20:52:48.437Z,99.90
2019-05-26T20:55:18.412Z,99.90
2019-05-26T20:57:48.213Z,99.90
2019-05-26T21:00:19.717Z,99.90
2019-05-26T21:02:49.034Z,99.90
2019-05-26T21:05:19.124Z,99.90
2019-05-26T21:07:48.720Z,99.90
2019-05-26T21:10:18.155Z,99.90
2019-05-26T21:12:47.439Z,99.90
2019-05-26T21:15:17.350Z,99.90
2019-05-26T21:17:46.710Z,99.90
2019-05-26T21:20:17.691Z,99.90
2019-05-26T21:22:47.012Z,99.90
2019-05-26T21:25:18.160Z,99.90
2019-05-26T21:27:47.461Z,99.90
2019-05-26T21:30:18.793Z,99.90
2019-05-26T21:32:48.183Z,99.90
2019-05-26T21:35:17.676Z,99.90
2019-05-26T21:37:46.952Z,99.90
2019-05-26T21:40:16.731Z,99.90
2019-05-26T21:42:46.052Z,99.90
2019-05-26T21:45:15.432Z,99.90
2019-05-26T21:47:44.987Z,99.90
2019-05-26T21:50:15.403Z,99.90
2019-05-26T21:52:44.688Z,99.90
2019-05-26T21:55:14.939Z,99.90
2019-05-26T21:57:44.552Z,99.90
2019-05-26T22:00:17.003Z,99.90
2019-05-26T22:02:46.669Z,99.90
2019-05-26T22:05:20.641Z,99.90
2019-05-26T22:07:49.944Z,99.90
2019-05-26T22:10:19.330Z,99.90
2019-05-26T22:12:48.610Z,99.90
2019-05-26T22:15:18.133Z,99.90
2019-05-26T22:17:47.755Z,99.90
2019-05-26T22:20:17.400Z,99.90
2019-05-26T22:22:49.525Z,99.90
2019-05-26T22:25:18.920Z,99.90
2019-05-26T22:27:48.556Z,99.90
2019-05-26T22:30:17.996Z,99.90
2019-05-26T22:32:47.295Z,99.90
2019-05-26T22:35:16.600Z,99.90
2019-05-26T22:37:45.897Z,99.90
2019-05-26T22:40:17.083Z,99.90
2019-05-26T22:42:46.388Z,99.90
2019-05-26T22:45:16.421Z,99.90
2019-05-26T22:47:45.726Z,99.90
2019-05-26T22:50:15.977Z,99.90
2019-05-26T22:52:45.265Z,99.90
2019-05-26T22:55:14.636Z,99.90
2019-05-26T22:57:43.936Z,99.90
2019-05-26T23:00:14.354Z,99.90
2019-05-26T23:02:43.963Z,99.90
2019-05-26T23:05:14.316Z,99.90
2019-05-26T23:07:43.608Z,99.90
2019-05-26T23:10:13.718Z,99.90
2019-05-26T23:12:43.014Z,99.90
2019-05-26T23:15:12.958Z,99.90
2019-05-26T23:17:42.540Z,99.90
2019-05-26T23:20:12.219Z,99.90
2019-05-26T23:22:41.862Z,99.90
2019-05-26T23:25:11.673Z,99.90
2019-05-26T23:27:40.990Z,99.90
2019-05-26T23:30:11.235Z,99.90
2019-05-26T23:32:40.536Z,99.90
2019-05-26T23:35:10.475Z,99.90
2019-05-26T23:37:39.759Z,99.90
2019-05-26T23:40:10.071Z,99.90
2019-05-26T23:42:42.078Z,99.90
2019-05-26T23:45:11.445Z,99.90
2019-05-26T23:47:40.733Z,99.90
2019-05-26T23:50:10.673Z,99.90
2019-05-26T23:52:40.006Z,99.90
2019-05-26T23:55:10.932Z,99.90
2019-05-26T23:57:40.257Z,99.90
